Time;durP1;ratioP1;P1;durP2;ratioP2;P2;SDS_P1;SDS_P2;PMS_P1;PMS_P2;Temp;Humidity;BMP_temperature;BMP_pressure;BME280_temperature;BME280_humidity;BME280_pressure;Samples;Min_cycle;Max_cycle;Signal;HPM_P1;HPM_P2
2021/09/04 00:01:30;;;;;;;31.02;19.10;;;17.40;74.20;;;;;;5077573;28;20034;-28
2021/09/04 00:03:56;;;;;;;35.88;20.15;;;17.30;74.10;;;;;;5077603;28;20027;-28
2021/09/04 00:06:21;;;;;;;33.03;18.58;;;17.30;74.20;;;;;;5077207;28;20025;-28
2021/09/04 00:08:47;;;;;;;34.25;18.88;;;17.30;74.10;;;;;;5077477;28;20094;-28
2021/09/04 00:11:13;;;;;;;32.15;19.15;;;17.30;74.00;;;;;;5076969;28;20055;-28
2021/09/04 00:13:38;;;;;;;34.47;19.38;;;17.20;74.00;;;;;;5077125;28;20056;-28
2021/09/04 00:16:04;;;;;;;33.40;18.77;;;17.20;74.00;;;;;;5077347;28;20036;-28
2021/09/04 00:18:33;;;;;;;31.52;18.17;;;17.20;74.00;;;;;;5077116;28;20029;-28
2021/09/04 00:20:59;;;;;;;32.38;19.52;;;17.20;74.00;;;;;;5077002;28;20024;-28
2021/09/04 00:23:25;;;;;;;34.67;19.15;;;17.20;74.10;;;;;;5076984;28;20025;-28
2021/09/04 00:25:50;;;;;;;30.92;18.40;;;17.10;74.00;;;;;;5076925;28;20487;-28
2021/09/04 00:28:16;;;;;;;32.38;18.00;;;17.10;74.00;;;;;;5059389;28;20100;-28
2021/09/04 00:30:42;;;;;;;36.90;18.85;;;17.10;74.00;;;;;;5077046;28;20114;-28
2021/09/04 00:33:07;;;;;;;32.50;19.05;;;17.10;74.00;;;;;;5076789;28;20046;-28
2021/09/04 00:35:33;;;;;;;33.60;19.33;;;17.10;74.00;;;;;;5076966;28;20457;-28
2021/09/04 00:37:58;;;;;;;30.08;18.85;;;17.00;74.00;;;;;;5059024;28;20125;-28
2021/09/04 00:40:24;;;;;;;33.95;19.48;;;17.00;74.00;;;;;;5059013;28;20024;-28
2021/09/04 00:42:50;;;;;;;30.33;17.83;;;17.00;74.00;;;;;;5058813;28;20055;-28
2021/09/04 00:45:15;;;;;;;31.95;18.67;;;17.00;74.10;;;;;;5076796;28;20493;-28
2021/09/04 00:48:02;;;;;;;38.17;18.73;;;17.00;74.10;;;;;;5076438;28;20467;-28
2021/09/04 00:50:29;;;;;;;29.15;17.77;;;16.90;72.80;;;;;;5076385;28;20025;-28
2021/09/04 00:52:55;;;;;;;32.45;18.80;;;16.90;74.10;;;;;;5076402;28;20426;-28
2021/09/04 00:55:21;;;;;;;33.30;17.95;;;16.90;74.10;;;;;;5076538;28;20107;-28
2021/09/04 00:57:47;;;;;;;32.75;18.80;;;16.90;74.10;;;;;;5076438;28;20028;-28
2021/09/04 01:00:13;;;;;;;32.97;18.00;;;16.80;74.10;;;;;;5058749;28;20116;-28
2021/09/04 01:02:39;;;;;;;32.83;17.80;;;16.80;74.10;;;;;;5076404;28;20032;-28
2021/09/04 01:05:06;;;;;;;36.72;19.27;;;16.80;74.10;;;;;;5058574;28;20032;-28
2021/09/04 01:07:31;;;;;;;31.63;18.77;;;16.70;74.10;;;;;;5076049;28;20024;-28
2021/09/04 01:09:57;;;;;;;34.80;20.38;;;16.70;74.20;;;;;;5076301;28;20081;-28
2021/09/04 01:12:23;;;;;;;32.53;18.63;;;16.70;74.20;;;;;;5076188;28;20081;-28
2021/09/04 01:14:48;;;;;;;33.88;17.98;;;16.70;74.20;;;;;;5058559;28;20028;-28
2021/09/04 01:17:15;;;;;;;31.58;18.40;;;16.60;74.20;;;;;;5058305;28;20032;-28
2021/09/04 01:19:40;;;;;;;37.90;19.73;;;16.60;74.10;;;;;;5058613;28;20119;-28
2021/09/04 01:22:06;;;;;;;31.40;18.52;;;16.60;74.20;;;;;;5075279;28;20097;-28
2021/09/04 01:24:32;;;;;;;27.52;18.42;;;16.50;74.40;;;;;;5075689;28;20036;-28
2021/09/04 01:26:58;;;;;;;37.35;18.98;;;16.50;74.40;;;;;;5075729;28;20025;-28
2021/09/04 01:29:23;;;;;;;34.42;18.98;;;16.50;74.50;;;;;;5058500;28;20043;-28
2021/09/04 01:31:49;;;;;;;36.45;20.17;;;16.50;74.60;;;;;;5075628;28;20376;-28
2021/09/04 01:34:15;;;;;;;41.22;19.10;;;16.50;74.50;;;;;;5075618;28;20042;-28
2021/09/04 01:36:40;;;;;;;35.92;19.08;;;16.40;74.50;;;;;;5075687;28;20025;-28
2021/09/04 01:39:07;;;;;;;37.75;19.23;;;16.40;74.50;;;;;;5075650;28;20024;-28
2021/09/04 01:41:33;;;;;;;34.63;19.00;;;16.40;74.50;;;;;;5058061;28;20016;-28
2021/09/04 01:43:58;;;;;;;34.63;18.50;;;16.30;74.40;;;;;;5075211;28;20206;-28
2021/09/04 01:46:24;;;;;;;35.92;18.83;;;16.30;74.50;;;;;;5075346;28;20021;-28
2021/09/04 01:48:50;;;;;;;39.20;19.52;;;16.30;74.60;;;;;;5057830;28;20028;-28
2021/09/04 01:51:15;;;;;;;31.65;19.58;;;16.30;74.50;;;;;;5075515;28;20024;-28
2021/09/04 01:53:42;;;;;;;39.38;19.90;;;16.30;74.50;;;;;;5057640;28;20129;-28
2021/09/04 01:56:08;;;;;;;35.13;20.52;;;16.30;75.40;;;;;;5075187;28;20461;-28
2021/09/04 01:58:34;;;;;;;35.45;19.90;;;16.20;74.80;;;;;;5075297;28;20029;-28
2021/09/04 02:00:59;;;;;;;37.90;19.55;;;16.20;74.90;;;;;;5075123;28;20150;-28
2021/09/04 02:03:25;;;;;;;34.45;18.70;;;16.10;74.90;;;;;;5075024;28;20024;-28
2021/09/04 02:05:51;;;;;;;35.63;18.27;;;16.10;75.00;;;;;;5057594;28;20025;-28
2021/09/04 02:08:16;;;;;;;32.60;17.77;;;16.10;75.10;;;;;;5075268;28;20058;-28
2021/09/04 02:10:42;;;;;;;37.92;18.27;;;16.10;75.10;;;;;;5075355;28;20028;-28
2021/09/04 02:13:07;;;;;;;33.75;17.38;;;16.00;75.10;;;;;;5074998;28;20444;-28
2021/09/04 02:15:33;;;;;;;30.00;18.60;;;16.00;75.30;;;;;;5074895;28;20178;-28
2021/09/04 02:17:59;;;;;;;30.83;17.70;;;16.00;75.30;;;;;;5057170;28;20024;-28
2021/09/04 02:20:24;;;;;;;36.95;18.20;;;16.00;75.30;;;;;;5074774;28;20024;-28
2021/09/04 02:22:50;;;;;;;31.77;17.33;;;16.00;75.40;;;;;;5057581;28;20024;-28
2021/09/04 02:25:15;;;;;;;36.33;19.02;;;16.00;75.40;;;;;;5074811;28;20016;-28
2021/09/04 02:27:41;;;;;;;32.92;16.05;;;16.00;75.40;;;;;;5075009;28;20385;-28
2021/09/04 02:30:08;;;;;;;32.20;17.17;;;15.90;75.30;;;;;;5074996;28;20043;-28
2021/09/04 02:32:33;;;;;;;37.22;17.17;;;15.90;75.40;;;;;;5074550;28;20025;-28
2021/09/04 02:34:59;;;;;;;34.35;16.77;;;15.90;75.50;;;;;;5075010;28;20457;-28
2021/09/04 02:37:25;;;;;;;34.55;17.02;;;15.90;75.50;;;;;;5074480;28;20051;-28
2021/09/04 02:39:51;;;;;;;32.08;17.10;;;15.90;75.40;;;;;;5074642;28;20032;-28
2021/09/04 02:42:16;;;;;;;34.67;17.20;;;15.90;75.50;;;;;;5074429;28;20449;-28
2021/09/04 02:44:42;;;;;;;33.60;16.77;;;15.90;75.40;;;;;;5074590;28;20033;-28
2021/09/04 02:47:08;;;;;;;33.33;17.45;;;15.90;75.40;;;;;;5057124;28;20013;-28
2021/09/04 02:49:34;;;;;;;38.20;17.17;;;15.90;75.30;;;;;;5074756;28;20021;-28
2021/09/04 02:51:59;;;;;;;32.08;17.05;;;15.80;75.30;;;;;;5074532;28;20024;-28
2021/09/04 02:54:25;;;;;;;32.55;17.58;;;15.80;75.30;;;;;;5074492;28;20082;-28
2021/09/04 02:56:51;;;;;;;33.20;17.80;;;15.80;75.20;;;;;;5074475;28;20021;-28
2021/09/04 02:59:16;;;;;;;26.67;16.10;;;15.80;75.20;;;;;;5074641;28;20468;-28
2021/09/04 03:01:42;;;;;;;31.50;16.58;;;15.80;75.30;;;;;;5074699;28;20036;-28
2021/09/04 03:04:08;;;;;;;38.38;18.10;;;15.70;75.30;;;;;;5074381;28;20020;-28
2021/09/04 03:06:33;;;;;;;33.67;17.48;;;15.70;75.40;;;;;;5074609;28;20025;-28
2021/09/04 03:08:59;;;;;;;32.75;16.23;;;15.70;75.50;;;;;;5074660;28;20028;-28
2021/09/04 03:11:25;;;;;;;27.17;16.58;;;15.70;75.60;;;;;;5040152;28;20024;-28
2021/09/04 03:13:50;;;;;;;30.80;15.60;;;15.60;75.50;;;;;;5074302;28;20059;-28
2021/09/04 03:16:16;;;;;;;28.48;16.40;;;15.60;75.60;;;;;;5056730;28;20028;-28
2021/09/04 03:18:42;;;;;;;32.20;16.00;;;15.60;75.60;;;;;;5074126;28;20031;-28
2021/09/04 03:21:07;;;;;;;35.35;17.13;;;15.60;75.70;;;;;;5074249;28;20039;-28
2021/09/04 03:23:33;;;;;;;25.77;16.63;;;15.50;75.80;;;;;;5074218;28;20087;-28
2021/09/04 03:25:59;;;;;;;30.85;16.20;;;15.50;75.70;;;;;;5056984;28;20032;-28
2021/09/04 03:28:24;;;;;;;32.72;17.50;;;15.50;75.80;;;;;;5074145;28;20031;-28
2021/09/04 03:30:50;;;;;;;41.58;17.40;;;15.50;76.00;;;;;;5074116;28;20043;-28
2021/09/04 03:33:15;;;;;;;32.88;17.85;;;15.50;76.10;;;;;;5074397;28;20078;-28
2021/09/04 03:35:41;;;;;;;43.40;17.65;;;15.50;76.40;;;;;;5074098;28;20024;-28
2021/09/04 03:38:07;;;;;;;37.83;18.63;;;15.50;76.60;;;;;;5074007;28;20025;-28
2021/09/04 03:40:32;;;;;;;34.13;17.90;;;15.50;76.90;;;;;;5074293;28;20021;-28
2021/09/04 03:42:58;;;;;;;44.03;19.42;;;15.60;77.90;;;;;;5073887;28;20087;-28
2021/09/04 03:45:24;;;;;;;39.63;19.58;;;15.60;77.40;;;;;;5058133;28;20397;-28
2021/09/04 03:47:49;;;;;;;39.53;20.65;;;15.60;77.40;;;;;;5077680;28;20111;-28
2021/09/04 03:50:15;;;;;;;38.08;20.35;;;15.60;77.50;;;;;;5077581;28;20056;-28
2021/09/04 03:52:41;;;;;;;36.70;19.25;;;15.70;77.60;;;;;;5060005;28;20028;-28
2021/09/04 03:55:07;;;;;;;36.35;18.35;;;15.70;78.00;;;;;;5077544;28;20024;-28
2021/09/04 03:57:32;;;;;;;35.30;18.33;;;15.70;77.30;;;;;;5077574;28;20033;-28
2021/09/04 03:59:58;;;;;;;43.03;20.20;;;15.80;77.50;;;;;;5077434;28;20025;-28
2021/09/04 04:02:24;;;;;;;41.22;21.00;;;15.80;77.50;;;;;;5077612;28;20040;-28
2021/09/04 04:04:49;;;;;;;36.67;19.63;;;15.80;77.60;;;;;;5077350;28;20030;-28
2021/09/04 04:07:15;;;;;;;45.97;21.20;;;15.90;77.30;;;;;;5077317;28;20096;-28
2021/09/04 04:09:40;;;;;;;41.10;22.10;;;15.90;77.40;;;;;;5077206;28;20025;-28
2021/09/04 04:12:06;;;;;;;37.95;20.55;;;15.90;77.50;;;;;;5077161;28;20060;-28
2021/09/04 04:14:32;;;;;;;43.63;23.52;;;15.90;77.20;;;;;;5077101;28;20035;-28
2021/09/04 04:16:58;;;;;;;38.55;20.50;;;15.90;77.10;;;;;;5077353;28;20040;-28
2021/09/04 04:19:23;;;;;;;45.22;22.52;;;15.90;77.10;;;;;;5059281;28;20115;-28
2021/09/04 04:21:49;;;;;;;44.20;23.42;;;15.90;77.30;;;;;;5077052;28;20021;-29
2021/09/04 04:24:15;;;;;;;39.60;21.50;;;15.90;77.30;;;;;;5077291;28;20452;-28
2021/09/04 04:26:40;;;;;;;47.45;23.45;;;16.00;77.50;;;;;;5076906;28;20024;-28
2021/09/04 04:29:06;;;;;;;39.38;21.60;;;16.00;77.30;;;;;;5076919;28;20045;-28
2021/09/04 04:31:33;;;;;;;41.97;22.45;;;16.00;77.00;;;;;;5076790;28;20017;-28
2021/09/04 04:33:59;;;;;;;43.72;23.55;;;16.00;77.20;;;;;;5077050;28;20032;-28
2021/09/04 04:36:25;;;;;;;37.63;21.55;;;16.00;77.30;;;;;;5076965;28;20509;-28
2021/09/04 04:38:50;;;;;;;48.10;24.60;;;16.00;77.10;;;;;;5076860;28;20032;-28
2021/09/04 04:41:16;;;;;;;47.75;24.08;;;16.00;77.50;;;;;;5076932;28;20452;-28
2021/09/04 04:43:42;;;;;;;41.20;23.02;;;16.00;77.60;;;;;;5058815;28;20040;-28
2021/09/04 04:46:07;;;;;;;45.00;24.55;;;16.00;77.60;;;;;;5076573;28;20039;-28
2021/09/04 04:48:33;;;;;;;41.10;22.10;;;15.90;77.60;;;;;;5076769;28;20403;-28
2021/09/04 04:50:59;;;;;;;45.13;23.08;;;16.00;77.40;;;;;;5076734;28;20025;-28
2021/09/04 04:53:25;;;;;;;44.33;24.73;;;16.00;77.50;;;;;;5076462;28;20016;-28
2021/09/04 04:55:50;;;;;;;43.70;22.73;;;16.00;77.60;;;;;;5076345;28;20028;-28
2021/09/04 04:58:16;;;;;;;38.67;21.48;;;16.00;77.80;;;;;;5076517;28;20039;-28
2021/09/04 05:00:42;;;;;;;47.42;23.75;;;16.00;77.80;;;;;;5076483;28;20031;-28
2021/09/04 05:03:07;;;;;;;45.38;23.15;;;16.00;77.70;;;;;;5076464;28;20035;-28
2021/09/04 05:05:34;;;;;;;46.90;23.23;;;16.10;78.20;;;;;;5058674;28;20082;-28
2021/09/04 05:08:00;;;;;;;43.17;22.23;;;16.00;77.70;;;;;;5076367;28;20052;-28
2021/09/04 05:10:25;;;;;;;45.42;22.38;;;16.00;77.70;;;;;;5076035;28;20021;-28
2021/09/04 05:12:58;;;;;;;44.10;23.00;;;16.00;78.30;;;;;;5076307;28;20025;-28
2021/09/04 05:15:24;;;;;;;40.63;23.00;;;16.00;77.70;;;;;;5076225;28;20029;-28
2021/09/04 05:17:50;;;;;;;39.72;20.88;;;16.00;77.60;;;;;;5076084;28;20069;-28
2021/09/04 05:20:15;;;;;;;43.67;22.35;;;16.00;77.40;;;;;;5075858;28;20357;-28
2021/09/04 05:22:45;;;;;;;40.65;21.77;;;16.00;77.60;;;;;;5075787;28;20394;-28
2021/09/04 05:25:10;;;;;;;44.95;22.95;;;16.00;77.60;;;;;;5058183;28;20474;-28
2021/09/04 05:27:36;;;;;;;40.28;22.85;;;16.10;77.80;;;;;;5075916;28;20052;-28
2021/09/04 05:30:02;;;;;;;43.40;21.38;;;16.00;77.70;;;;;;5075651;28;20103;-28
2021/09/04 05:32:28;;;;;;;39.65;23.05;;;16.10;77.80;;;;;;5075570;28;20170;-28
2021/09/04 05:34:54;;;;;;;37.00;22.15;;;16.00;77.80;;;;;;5075861;28;20039;-28
2021/09/04 05:37:19;;;;;;;42.42;21.08;;;16.10;78.10;;;;;;5075397;28;20024;-28
2021/09/04 05:39:45;;;;;;;39.05;20.73;;;16.10;77.80;;;;;;5075447;28;20032;-28
2021/09/04 05:42:11;;;;;;;43.22;22.42;;;16.10;77.90;;;;;;5075323;28;20371;-28
2021/09/04 05:44:37;;;;;;;36.38;20.60;;;16.10;78.10;;;;;;5041237;28;20096;-28
2021/09/04 05:47:02;;;;;;;40.50;22.30;;;16.10;78.10;;;;;;5075364;28;20021;-28
2021/09/04 05:49:28;;;;;;;38.20;20.98;;;16.10;78.20;;;;;;5075560;28;20020;-28
2021/09/04 05:51:54;;;;;;;42.53;21.65;;;16.10;78.20;;;;;;5075323;28;20413;-28
2021/09/04 05:54:19;;;;;;;38.08;21.30;;;16.10;78.10;;;;;;5075430;28;20035;-28
2021/09/04 05:56:45;;;;;;;41.42;21.52;;;16.20;78.30;;;;;;5057625;28;20024;-28
2021/09/04 05:59:10;;;;;;;37.72;22.42;;;16.20;78.30;;;;;;5075100;28;20337;-28
2021/09/04 06:01:36;;;;;;;37.40;21.63;;;16.20;78.30;;;;;;5075351;28;20021;-28
2021/09/04 06:04:02;;;;;;;39.58;23.17;;;16.30;78.20;;;;;;5040891;28;20026;-28
2021/09/04 06:06:27;;;;;;;38.30;22.95;;;16.30;78.20;;;;;;5075296;28;20077;-28
2021/09/04 06:08:53;;;;;;;42.42;22.85;;;16.30;78.10;;;;;;5074983;28;20171;-28
2021/09/04 06:11:19;;;;;;;42.75;23.88;;;16.40;78.20;;;;;;5074943;28;20460;-28
2021/09/04 06:13:44;;;;;;;36.85;21.65;;;16.30;77.80;;;;;;5057633;28;20028;-28
2021/09/04 06:16:10;;;;;;;36.47;20.20;;;16.40;77.80;;;;;;5075170;28;20322;-28
2021/09/04 06:18:36;;;;;;;38.08;21.13;;;16.40;77.50;;;;;;5057190;28;20148;-28
2021/09/04 06:21:01;;;;;;;41.88;23.08;;;16.40;77.70;;;;;;5075149;28;20020;-28
2021/09/04 06:23:27;;;;;;;39.08;22.85;;;16.40;77.80;;;;;;5075152;28;20429;-28
2021/09/04 06:25:52;;;;;;;36.88;20.13;;;16.40;77.70;;;;;;5075051;28;20024;-28
2021/09/04 06:28:18;;;;;;;41.38;22.33;;;16.40;77.60;;;;;;5074736;28;20075;-28
2021/09/04 06:30:44;;;;;;;40.55;22.33;;;16.40;77.90;;;;;;5074990;28;20025;-28
2021/09/04 06:33:09;;;;;;;44.90;23.20;;;16.40;78.00;;;;;;5057247;28;20078;-28
2021/09/04 06:35:36;;;;;;;42.55;23.42;;;16.50;78.20;;;;;;5074658;28;20052;-28
2021/09/04 06:38:02;;;;;;;44.63;22.95;;;16.50;78.40;;;;;;5074618;28;20420;-28
2021/09/04 06:40:28;;;;;;;42.25;23.58;;;16.50;78.30;;;;;;5074654;28;20048;-28
2021/09/04 06:42:53;;;;;;;46.70;22.90;;;16.50;78.20;;;;;;5074386;28;20063;-28
2021/09/04 06:45:19;;;;;;;43.28;23.92;;;16.60;78.10;;;;;;5057281;28;20020;-29
2021/09/04 06:47:45;;;;;;;43.53;23.38;;;16.70;78.20;;;;;;5074838;28;20089;-28
2021/09/04 06:50:11;;;;;;;41.97;23.92;;;16.70;78.10;;;;;;5057234;28;20032;-28
2021/09/04 06:52:36;;;;;;;44.20;22.33;;;16.70;78.10;;;;;;5074446;28;20349;-28
2021/09/04 06:55:02;;;;;;;39.53;22.27;;;16.80;77.90;;;;;;5074744;28;20035;-28
2021/09/04 06:57:28;;;;;;;40.50;22.77;;;16.80;77.90;;;;;;5074689;28;20319;-28
2021/09/04 06:59:53;;;;;;;40.45;22.00;;;16.90;77.60;;;;;;5074478;28;20059;-28
2021/09/04 07:02:19;;;;;;;36.25;20.67;;;16.90;77.40;;;;;;5074410;28;20028;-28
2021/09/04 07:04:45;;;;;;;43.58;22.52;;;16.90;76.90;;;;;;5074726;28;20109;-28
2021/09/04 07:07:10;;;;;;;39.60;21.40;;;17.00;77.60;;;;;;5074684;28;20049;-28
2021/09/04 07:09:37;;;;;;;40.13;23.92;;;17.00;77.50;;;;;;5074618;28;20640;-28
2021/09/04 07:12:02;;;;;;;38.20;21.38;;;17.00;76.80;;;;;;5074593;28;20024;-28
2021/09/04 07:14:28;;;;;;;35.17;19.55;;;17.10;76.60;;;;;;5056887;28;20025;-28
2021/09/04 07:16:54;;;;;;;36.83;21.33;;;17.10;76.40;;;;;;5074594;28;20033;-28
2021/09/04 07:19:19;;;;;;;40.33;22.75;;;17.10;76.30;;;;;;5074437;28;20028;-28
2021/09/04 07:21:45;;;;;;;41.53;22.48;;;17.10;76.30;;;;;;5077769;28;20411;-28
2021/09/04 07:24:11;;;;;;;39.42;20.98;;;17.10;76.20;;;;;;5078000;28;20032;-28
2021/09/04 07:26:36;;;;;;;42.80;22.13;;;17.10;76.10;;;;;;5060696;28;20021;-28
2021/09/04 07:29:02;;;;;;;40.33;22.98;;;17.20;76.20;;;;;;5078029;28;20100;-28
2021/09/04 07:31:28;;;;;;;44.55;21.63;;;17.20;76.30;;;;;;5078188;28;20069;-28
2021/09/04 07:33:53;;;;;;;38.63;22.42;;;17.20;76.20;;;;;;5060280;28;20143;-28
2021/09/04 07:36:19;;;;;;;38.35;21.23;;;17.20;76.50;;;;;;5078120;28;20115;-28
2021/09/04 07:38:44;;;;;;;43.05;22.17;;;17.20;76.10;;;;;;5077989;28;20107;-28
2021/09/04 07:41:10;;;;;;;42.53;21.70;;;17.30;75.90;;;;;;5078049;28;20122;-28
2021/09/04 07:43:36;;;;;;;42.55;23.42;;;17.30;75.80;;;;;;5077525;28;20568;-28
2021/09/04 07:46:01;;;;;;;41.90;22.60;;;17.30;75.70;;;;;;5077993;28;20044;-28
2021/09/04 07:48:27;;;;;;;41.00;23.45;;;17.30;75.80;;;;;;5077567;28;20471;-28
2021/09/04 07:50:53;;;;;;;41.53;23.05;;;17.30;75.70;;;;;;5077602;28;20032;-28
2021/09/04 07:53:19;;;;;;;43.75;24.00;;;17.40;75.80;;;;;;5077483;28;20127;-28
2021/09/04 07:55:45;;;;;;;44.58;23.88;;;17.40;75.80;;;;;;5077571;28;20048;-28
2021/09/04 07:58:10;;;;;;;39.25;22.65;;;17.40;75.60;;;;;;5077667;28;20345;-28
2021/09/04 08:00:36;;;;;;;44.97;24.50;;;17.40;75.50;;;;;;5077437;28;20025;-28
2021/09/04 08:03:02;;;;;;;43.15;23.98;;;17.40;75.40;;;;;;5077648;28;20082;-28
2021/09/04 08:05:28;;;;;;;41.83;22.38;;;17.50;75.40;;;;;;5077215;28;20107;-28
2021/09/04 08:07:53;;;;;;;42.45;23.80;;;17.50;75.20;;;;;;5077607;28;20033;-28
2021/09/04 08:10:19;;;;;;;48.15;24.45;;;17.60;75.20;;;;;;5077248;28;20361;-28
2021/09/04 08:12:44;;;;;;;43.33;22.73;;;17.60;75.20;;;;;;5077339;28;20349;-28
2021/09/04 08:15:10;;;;;;;38.65;22.92;;;17.60;75.20;;;;;;5059592;28;20039;-28
2021/09/04 08:17:36;;;;;;;39.33;22.23;;;17.70;74.60;;;;;;5077004;28;20033;-28
2021/09/04 08:20:02;;;;;;;37.22;21.23;;;17.70;74.60;;;;;;5077358;28;20081;-28
2021/09/04 08:22:28;;;;;;;41.15;21.58;;;17.70;74.80;;;;;;5077226;28;20024;-28
2021/09/04 08:24:54;;;;;;;35.85;20.98;;;17.80;74.40;;;;;;5077236;28;20020;-28
2021/09/04 08:27:20;;;;;;;34.72;21.40;;;17.80;74.00;;;;;;5076955;28;20054;-28
2021/09/04 08:29:46;;;;;;;36.50;21.65;;;17.90;73.50;;;;;;5059275;28;20021;-28
2021/09/04 08:32:11;;;;;;;35.00;20.15;;;17.90;73.10;;;;;;5076892;28;20119;-27
2021/09/04 08:34:37;;;;;;;34.30;20.05;;;18.00;73.10;;;;;;5076760;28;20091;-28
2021/09/04 08:37:03;;;;;;;31.27;19.58;;;18.00;73.00;;;;;;5076849;28;20035;-28
2021/09/04 08:39:29;;;;;;;31.92;20.45;;;18.00;72.70;;;;;;5059013;28;20094;-28
2021/09/04 08:41:54;;;;;;;40.70;20.90;;;18.10;72.30;;;;;;5076914;28;20048;-27
2021/09/04 08:44:20;;;;;;;33.30;20.08;;;18.20;72.70;;;;;;5058928;28;20089;-27
2021/09/04 08:46:46;;;;;;;37.38;21.25;;;18.20;72.70;;;;;;5076817;28;20032;-27
2021/09/04 08:49:12;;;;;;;36.22;20.13;;;18.30;72.30;;;;;;5076798;28;20508;-28
2021/09/04 08:51:38;;;;;;;31.42;19.38;;;18.30;71.90;;;;;;5058839;28;20520;-27
2021/09/04 08:54:03;;;;;;;44.65;21.52;;;18.40;71.20;;;;;;5076668;28;20043;-27
2021/09/04 08:56:29;;;;;;;31.92;19.20;;;18.40;71.50;;;;;;5076350;28;20024;-27
2021/09/04 08:58:55;;;;;;;34.95;19.05;;;18.50;71.20;;;;;;5076219;28;20039;-27
2021/09/04 09:01:24;;;;;;;36.03;20.77;;;18.50;71.10;;;;;;5076475;28;20021;-28
2021/09/04 09:03:50;;;;;;;32.45;19.05;;;18.60;70.80;;;;;;5076254;28;20013;-28
2021/09/04 09:06:25;;;;;;;30.67;19.00;;;18.60;70.70;;;;;;5076177;28;20021;-28
2021/09/04 09:08:50;;;;;;;29.35;18.85;;;18.60;70.70;;;;;;5076384;28;20115;-27
2021/09/04 09:11:16;;;;;;;33.00;18.75;;;18.60;70.40;;;;;;5076334;28;20039;-27
2021/09/04 09:13:53;;;;;;;29.08;18.17;;;18.70;70.30;;;;;;5058665;28;20055;-28
2021/09/04 09:16:19;;;;;;;34.53;20.00;;;18.60;70.40;;;;;;5075927;28;20024;-27
2021/09/04 09:19:04;;;;;;;29.58;18.58;;;18.70;70.10;;;;;;5075880;28;20059;-27
2021/09/04 09:21:37;;;;;;;28.15;19.75;;;18.70;70.70;;;;;;5075853;28;20027;-28
2021/09/04 09:24:22;;;;;;;31.27;19.35;;;18.70;69.60;;;;;;5059801;28;20025;-27
2021/09/04 09:26:55;;;;;;;34.05;19.83;;;18.80;70.40;;;;;;5058213;28;20095;-27
2021/09/04 09:29:24;;;;;;;34.25;21.48;;;18.80;70.40;;;;;;5075670;28;20081;-27
2021/09/04 09:31:49;;;;;;;35.10;21.42;;;18.90;69.80;;;;;;5075941;28;20353;-27
2021/09/04 09:34:15;;;;;;;30.70;19.75;;;18.90;69.40;;;;;;5058068;28;20021;-27
2021/09/04 09:36:58;;;;;;;34.17;20.63;;;19.00;69.20;;;;;;5041445;28;20029;-27
2021/09/04 09:39:26;;;;;;;33.23;19.43;;;19.10;69.40;;;;;;5075439;28;20524;-27
2021/09/04 09:41:53;;;;;;;33.50;20.20;;;19.20;68.80;;;;;;5075780;28;20031;-27
2021/09/04 09:44:20;;;;;;;32.22;19.73;;;19.30;68.70;;;;;;5074510;28;20055;-28
2021/09/04 09:46:57;;;;;;;32.05;19.98;;;19.40;68.60;;;;;;5075337;28;20035;-28
2021/09/04 09:49:26;;;;;;;32.85;18.95;;;19.50;69.40;;;;;;5058096;28;20036;-28
2021/09/04 09:51:55;;;;;;;32.20;19.08;;;19.70;68.50;;;;;;5075555;28;20044;-28
2021/09/04 09:54:20;;;;;;;28.50;19.65;;;19.80;67.30;;;;;;5057953;28;20476;-28
2021/09/04 09:56:46;;;;;;;28.27;18.48;;;20.00;67.60;;;;;;5057732;28;20029;-28
2021/09/04 09:59:12;;;;;;;29.95;17.63;;;20.20;67.10;;;;;;5057632;28;20028;-28
2021/09/04 10:01:38;;;;;;;25.58;16.25;;;20.30;66.00;;;;;;5057910;28;20028;-28
2021/09/04 10:04:04;;;;;;;27.73;16.30;;;20.40;65.70;;;;;;5057871;28;20429;-28
2021/09/04 10:06:30;;;;;;;28.80;18.27;;;20.50;65.60;;;;;;5075057;28;20063;-28
2021/09/04 10:08:55;;;;;;;27.42;18.33;;;20.60;65.40;;;;;;5057389;28;20028;-28
2021/09/04 10:11:21;;;;;;;29.85;19.35;;;20.70;65.60;;;;;;5057542;28;20029;-28
2021/09/04 10:13:47;;;;;;;32.88;18.40;;;20.90;64.90;;;;;;5057460;28;20086;-28
2021/09/04 10:16:12;;;;;;;26.92;18.40;;;21.00;64.90;;;;;;5075203;28;20036;-28
2021/09/04 10:18:38;;;;;;;27.02;17.73;;;21.10;63.90;;;;;;5057636;28;20082;-28
2021/09/04 10:21:06;;;;;;;29.10;19.13;;;21.30;63.30;;;;;;5057289;28;20352;-28
2021/09/04 10:23:31;;;;;;;25.08;15.52;;;21.40;63.60;;;;;;5075074;28;20029;-28
2021/09/04 10:26:36;;;;;;;26.52;17.23;;;21.60;63.00;;;;;;5075111;28;20522;-28
2021/09/04 10:29:12;;;;;;;31.45;20.33;;;21.70;65.10;;;;;;5074801;28;20031;-30
2021/09/04 10:31:57;;;;;;;30.77;18.95;;;21.90;63.20;;;;;;5074707;28;20392;-28
2021/09/04 10:34:36;;;;;;;30.95;21.25;;;22.10;63.60;;;;;;5074691;28;20441;-28
2021/09/04 10:37:22;;;;;;;28.58;19.13;;;22.20;63.30;;;;;;5074732;28;20050;-28
2021/09/04 10:40:00;;;;;;;26.08;18.77;;;22.40;61.50;;;;;;5074721;28;20032;-28
2021/09/04 10:42:35;;;;;;;28.20;18.58;;;22.60;62.60;;;;;;5074688;28;20389;-28
2021/09/04 10:45:20;;;;;;;28.33;19.63;;;22.90;60.30;;;;;;5057123;28;20024;-28
2021/09/04 10:47:45;;;;;;;29.15;18.25;;;23.20;62.90;;;;;;5056932;28;20028;-28
2021/09/04 10:50:19;;;;;;;25.35;17.65;;;23.50;59.30;;;;;;5074868;28;20345;-28
2021/09/04 10:52:57;;;;;;;24.15;17.23;;;23.80;57.90;;;;;;5074600;28;20024;-29
2021/09/04 10:55:26;;;;;;;26.88;17.88;;;24.10;58.40;;;;;;5060497;28;20021;-29
2021/09/04 10:57:53;;;;;;;23.73;16.73;;;24.50;56.20;;;;;;5078830;28;20056;-28
2021/09/04 11:00:21;;;;;;;23.50;18.52;;;24.80;55.60;;;;;;5060898;28;20056;-28
2021/09/04 11:02:49;;;;;;;22.77;15.90;;;25.10;54.60;;;;;;5060890;28;20129;-28
2021/09/04 11:05:34;;;;;;;25.38;18.27;;;25.40;55.00;;;;;;5060823;28;20016;-28
2021/09/04 11:08:01;;;;;;;23.83;16.75;;;25.70;58.10;;;;;;5078464;28;20090;-28
2021/09/04 11:10:27;;;;;;;25.77;18.23;;;26.00;52.90;;;;;;5078669;28;20021;-28
2021/09/04 11:13:22;;;;;;;30.25;17.40;;;26.30;52.10;;;;;;5078410;28;20058;-28
2021/09/04 11:15:48;;;;;;;24.45;17.30;;;26.50;56.90;;;;;;5078266;28;20024;-28
2021/09/04 11:18:15;;;;;;;23.15;16.50;;;26.80;50.80;;;;;;5078484;28;20074;-28
2021/09/04 11:20:49;;;;;;;25.88;16.42;;;27.00;50.50;;;;;;5060633;28;20044;-28
2021/09/04 11:23:27;;;;;;;24.67;16.65;;;27.30;52.40;;;;;;5060696;28;20050;-28
2021/09/04 11:25:53;;;;;;;27.35;16.98;;;27.50;53.50;;;;;;5078098;28;20032;-28
2021/09/04 11:28:37;;;;;;;23.30;16.73;;;27.70;48.50;;;;;;5078042;28;20024;-29
2021/09/04 11:31:04;;;;;;;24.65;16.10;;;27.90;53.30;;;;;;5077950;28;20123;-29
2021/09/04 11:33:30;;;;;;;24.60;17.05;;;28.00;48.10;;;;;;5077910;28;20036;-28
2021/09/04 11:35:55;;;;;;;24.95;17.13;;;28.10;47.10;;;;;;5078169;28;20020;-28
2021/09/04 11:38:22;;;;;;;26.48;18.00;;;28.10;46.70;;;;;;5077679;28;20028;-28
2021/09/04 11:40:48;;;;;;;31.02;17.40;;;28.10;46.60;;;;;;5077844;28;20083;-28
2021/09/04 11:43:16;;;;;;;31.60;17.60;;;28.00;47.10;;;;;;5059963;28;20052;-28
2021/09/04 11:45:42;;;;;;;25.17;16.17;;;27.70;47.00;;;;;;5077699;28;20012;-28
2021/09/04 11:48:10;;;;;;;26.10;15.77;;;27.50;47.50;;;;;;5077666;28;20392;-28
2021/09/04 11:50:36;;;;;;;24.67;17.80;;;27.30;47.70;;;;;;5077856;28;20085;-28
2021/09/04 11:53:10;;;;;;;29.42;17.35;;;27.10;47.90;;;;;;5060180;28;20099;-28
2021/09/04 11:55:36;;;;;;;38.13;18.63;;;26.80;50.20;;;;;;5059845;28;20032;-28
2021/09/04 11:58:04;;;;;;;52.83;19.17;;;26.60;49.00;;;;;;5077683;28;20028;-28
2021/09/04 12:00:31;;;;;;;45.35;18.08;;;26.40;49.70;;;;;;5077702;28;20044;-28
2021/09/04 12:02:57;;;;;;;25.92;16.67;;;26.30;49.60;;;;;;5077697;28;20066;-29
2021/09/04 12:05:25;;;;;;;25.50;17.48;;;26.10;49.60;;;;;;5076804;28;20035;-28
2021/09/04 12:07:54;;;;;;;28.77;16.95;;;26.00;50.70;;;;;;5077139;28;20035;-28
2021/09/04 12:10:22;;;;;;;25.88;16.65;;;25.80;50.80;;;;;;5060341;28;20027;-28
2021/09/04 12:12:51;;;;;;;21.70;17.17;;;25.80;51.80;;;;;;5077588;28;20024;-28
2021/09/04 12:15:18;;;;;;;23.10;15.27;;;25.60;51.40;;;;;;5059924;28;20056;-28
2021/09/04 12:18:09;;;;;;;27.45;16.75;;;25.50;51.50;;;;;;5059514;28;20029;-28
2021/09/04 12:20:38;;;;;;;29.75;18.25;;;25.50;53.30;;;;;;5059467;28;20392;-28
2021/09/04 12:23:23;;;;;;;29.70;17.23;;;25.40;52.70;;;;;;5077333;28;20036;-28
2021/09/04 12:25:51;;;;;;;34.45;15.50;;;25.40;54.00;;;;;;5077284;28;20344;-28
2021/09/04 12:28:27;;;;;;;51.08;16.88;;;25.40;52.50;;;;;;5059700;28;20035;-28